createdAt,value
2022-09-18T00:00:48.817Z,7.50
2022-09-18T00:03:34.987Z,7.50
2022-09-18T00:06:23.190Z,7.60
2022-09-18T00:09:12.145Z,7.60
2022-09-18T00:12:00.390Z,7.60
2022-09-18T00:14:46.894Z,7.60
2022-09-18T00:17:33.856Z,7.60
2022-09-18T00:20:20.731Z,7.70
2022-09-18T00:23:06.917Z,7.70
2022-09-18T00:25:52.887Z,7.70
2022-09-18T00:28:39.086Z,7.70
2022-09-18T00:31:29.955Z,7.70
2022-09-18T00:34:17.035Z,7.70
2022-09-18T00:37:02.985Z,7.70
2022-09-18T00:39:48.962Z,7.70
2022-09-18T00:42:35.260Z,7.70
2022-09-18T00:45:21.717Z,7.60
2022-09-18T00:48:09.445Z,7.60
2022-09-18T00:50:55.918Z,7.50
2022-09-18T00:53:46.935Z,7.40
2022-09-18T00:56:33.282Z,7.30
2022-09-18T00:59:26.385Z,7.30
2022-09-18T01:02:12.828Z,7.30
2022-09-18T01:04:58.932Z,7.40
2022-09-18T01:08:03.798Z,7.40
2022-09-18T01:11:11.254Z,7.50
2022-09-18T01:14:15.965Z,7.50
2022-09-18T01:17:02.129Z,7.60
2022-09-18T01:20:17.798Z,7.60
2022-09-18T01:23:48.149Z,7.60
2022-09-18T01:26:55.916Z,7.50
2022-09-18T01:30:02.537Z,7.50
2022-09-18T01:32:53.090Z,7.50
2022-09-18T01:35:57.320Z,7.50
2022-09-18T01:38:57.495Z,7.50
2022-09-18T01:41:50.842Z,7.60
2022-09-18T01:44:43.004Z,7.60
2022-09-18T01:47:36.445Z,7.60
2022-09-18T01:50:25.567Z,7.60
2022-09-18T01:53:17.345Z,7.60
2022-09-18T01:56:11.213Z,7.60
2022-09-18T01:59:01.953Z,7.60
2022-09-18T02:02:01.308Z,7.60
2022-09-18T02:04:52.633Z,7.60
2022-09-18T02:08:00.537Z,7.60
2022-09-18T02:11:00.004Z,7.60
2022-09-18T02:13:49.382Z,7.60
2022-09-18T02:16:53.021Z,7.60
2022-09-18T02:19:44.390Z,7.60
2022-09-18T02:22:33.325Z,7.60
2022-09-18T02:25:25.285Z,7.70
2022-09-18T02:28:16.380Z,7.70
2022-09-18T02:31:03.903Z,7.70
2022-09-18T02:33:50.899Z,7.70
2022-09-18T02:36:56.614Z,7.70
2022-09-18T02:40:01.796Z,7.80
2022-09-18T02:43:14.392Z,7.80
2022-09-18T02:46:16.805Z,7.80
2022-09-18T02:49:10.013Z,7.90
2022-09-18T02:52:18.141Z,7.90
2022-09-18T02:55:15.804Z,8.00
2022-09-18T02:58:13.642Z,8.00
2022-09-18T03:01:03.051Z,8.00
2022-09-18T03:03:51.857Z,8.00
2022-09-18T03:06:43.236Z,8.00
2022-09-18T03:09:34.654Z,8.00
2022-09-18T03:12:20.825Z,8.10
2022-09-18T03:15:08.877Z,8.10
2022-09-18T03:17:55.228Z,8.10
2022-09-18T03:20:43.781Z,8.20
2022-09-18T03:23:30.724Z,8.20
2022-09-18T03:26:28.925Z,8.20
2022-09-18T03:29:15.021Z,8.20
2022-09-18T03:32:02.620Z,8.20
2022-09-18T03:34:55.944Z,8.20
2022-09-18T03:37:42.803Z,8.20
2022-09-18T03:40:31.386Z,8.20
2022-09-18T03:43:21.046Z,8.30
2022-09-18T03:46:08.920Z,8.20
2022-09-18T03:48:55.371Z,8.30
2022-09-18T03:51:42.647Z,8.30
2022-09-18T03:54:28.790Z,8.30
2022-09-18T03:57:50.690Z,8.30
2022-09-18T04:00:57.010Z,8.30
2022-09-18T04:03:52.046Z,8.30
2022-09-18T04:06:56.829Z,8.30
2022-09-18T04:10:03.660Z,8.30
2022-09-18T04:12:49.870Z,8.30
2022-09-18T04:15:45.080Z,8.30
2022-09-18T04:18:31.237Z,8.30
2022-09-18T04:21:18.826Z,8.30
2022-09-18T04:24:04.857Z,8.30
2022-09-18T04:26:50.880Z,8.30
2022-09-18T04:29:42.373Z,8.40
2022-09-18T04:32:31.341Z,8.40
2022-09-18T04:35:17.357Z,8.40
2022-09-18T04:38:03.541Z,8.50
2022-09-18T04:40:55.150Z,8.50
2022-09-18T04:43:41.288Z,8.50
2022-09-18T04:46:27.215Z,8.50
2022-09-18T04:49:13.680Z,8.50
2022-09-18T04:52:00.357Z,8.60
2022-09-18T04:54:48.496Z,8.50
2022-09-18T04:57:34.677Z,8.60
2022-09-18T05:00:20.934Z,8.60
2022-09-18T05:03:08.286Z,8.60
2022-09-18T05:05:57.296Z,8.60
2022-09-18T05:08:43.722Z,8.60
2022-09-18T05:11:29.724Z,8.60
2022-09-18T05:14:15.666Z,8.60
2022-09-18T05:17:06.308Z,8.60
2022-09-18T05:19:57.680Z,8.60
2022-09-18T05:22:48.898Z,8.60
2022-09-18T05:25:40.248Z,8.60
2022-09-18T05:28:27.824Z,8.60
2022-09-18T05:31:16.808Z,8.60
2022-09-18T05:34:05.448Z,8.60
2022-09-18T05:36:51.522Z,8.60
2022-09-18T05:39:37.822Z,8.60
2022-09-18T05:42:23.778Z,8.60
2022-09-18T05:45:10.196Z,8.60
2022-09-18T05:47:57.590Z,8.60
2022-09-18T05:50:44.053Z,8.60
2022-09-18T05:53:32.545Z,8.70
2022-09-18T05:56:25.148Z,8.60
2022-09-18T05:59:14.269Z,8.70
2022-09-18T06:02:04.681Z,8.60
2022-09-18T06:05:24.476Z,8.60
2022-09-18T06:08:12.443Z,8.60
2022-09-18T06:11:01.460Z,8.60
2022-09-18T06:13:51.722Z,8.60
2022-09-18T06:16:42.122Z,8.60
2022-09-18T06:19:30.109Z,8.70
2022-09-18T06:22:17.632Z,8.70
2022-09-18T06:25:04.909Z,8.70
2022-09-18T06:27:59.089Z,8.70
2022-09-18T06:30:45.632Z,8.80
2022-09-18T06:33:32.610Z,8.80
2022-09-18T06:36:18.836Z,8.80
2022-09-18T06:39:25.233Z,8.80
2022-09-18T06:42:16.546Z,8.90
2022-09-18T06:45:07.856Z,8.90
2022-09-18T06:47:55.206Z,8.90
2022-09-18T06:50:42.651Z,9.00
2022-09-18T06:53:28.605Z,9.00
2022-09-18T06:56:20.090Z,9.00
2022-09-18T06:59:08.422Z,9.10
2022-09-18T07:01:56.022Z,9.10
2022-09-18T07:05:01.138Z,9.10
2022-09-18T07:07:47.563Z,9.00
2022-09-18T07:10:34.142Z,9.10
2022-09-18T07:13:20.379Z,9.00
2022-09-18T07:16:06.854Z,9.10
2022-09-18T07:18:53.862Z,9.10
2022-09-18T07:21:40.609Z,9.00
2022-09-18T07:24:28.335Z,9.00
2022-09-18T07:27:14.541Z,9.00
2022-09-18T07:30:01.959Z,9.00
2022-09-18T07:32:48.856Z,8.90
2022-09-18T07:35:39.609Z,8.90
2022-09-18T07:38:25.555Z,8.90
2022-09-18T07:41:14.934Z,8.90
2022-09-18T07:44:03.849Z,8.90
2022-09-18T07:46:51.048Z,8.90
2022-09-18T07:49:38.904Z,8.80
2022-09-18T07:52:27.550Z,8.80
2022-09-18T07:55:15.582Z,8.80
2022-09-18T07:58:04.775Z,8.80
2022-09-18T08:01:11.975Z,8.80
2022-09-18T08:04:06.514Z,8.80
2022-09-18T08:06:58.087Z,8.80
2022-09-18T08:10:08.041Z,8.80
2022-09-18T08:13:13.093Z,8.90
2022-09-18T08:16:21.618Z,8.90
2022-09-18T08:19:20.702Z,8.90
2022-09-18T08:22:11.917Z,9.00
2022-09-18T08:25:04.080Z,9.00
2022-09-18T08:27:50.349Z,9.00
2022-09-18T08:30:47.325Z,9.00
2022-09-18T08:33:33.432Z,9.10
2022-09-18T08:36:20.046Z,9.10
2022-09-18T08:39:16.418Z,9.10
2022-09-18T08:42:35.156Z,9.10
2022-09-18T08:45:27.170Z,9.20
2022-09-18T08:48:24.250Z,9.20
2022-09-18T08:51:24.513Z,9.20
2022-09-18T08:54:27.593Z,9.20
2022-09-18T08:57:39.209Z,9.20
2022-09-18T09:00:41.921Z,9.20
2022-09-18T09:03:52.587Z,9.30
2022-09-18T09:06:42.653Z,9.20
2022-09-18T09:09:53.066Z,9.30
2022-09-18T09:12:53.157Z,9.40
2022-09-18T09:15:54.231Z,9.40
2022-09-18T09:18:59.139Z,9.50
2022-09-18T09:22:08.205Z,9.50
2022-09-18T09:25:01.564Z,9.60
2022-09-18T09:28:47.499Z,9.80
2022-09-18T09:32:10.385Z,9.90
2022-09-18T09:35:16.816Z,10.00
2022-09-18T09:38:39.783Z,10.00
2022-09-18T09:41:34.736Z,10.20
2022-09-18T09:44:43.933Z,10.20
2022-09-18T09:47:38.262Z,10.20
2022-09-18T09:51:02.883Z,10.20
2022-09-18T09:53:52.042Z,10.30
2022-09-18T09:56:44.490Z,10.30
2022-09-18T09:59:49.317Z,10.30
2022-09-18T10:03:07.932Z,10.40
2022-09-18T10:06:16.777Z,10.40
2022-09-18T10:09:20.878Z,10.50
2022-09-18T10:12:29.162Z,10.50
2022-09-18T10:15:33.575Z,10.50
2022-09-18T10:18:25.364Z,10.50
2022-09-18T10:21:24.452Z,10.50
2022-09-18T10:24:27.389Z,10.60
2022-09-18T10:27:17.772Z,10.60
2022-09-18T10:30:12.706Z,10.70
2022-09-18T10:33:35.780Z,10.70
2022-09-18T10:36:39.070Z,10.80
2022-09-18T10:39:34.702Z,10.90
2022-09-18T10:42:27.210Z,11.00
2022-09-18T10:45:33.285Z,11.00
2022-09-18T10:48:33.468Z,11.00
2022-09-18T10:51:21.650Z,11.10
2022-09-18T10:54:19.019Z,11.00
2022-09-18T10:57:32.099Z,11.00
2022-09-18T11:00:21.083Z,11.00
2022-09-18T11:03:22.347Z,10.90
2022-09-18T11:06:23.962Z,10.90
2022-09-18T11:09:12.034Z,10.90
2022-09-18T11:12:03.066Z,10.80
2022-09-18T11:15:07.675Z,10.90
2022-09-18T11:17:57.016Z,10.80
2022-09-18T11:20:47.100Z,10.80
2022-09-18T11:23:38.053Z,10.90
2022-09-18T11:26:30.415Z,11.00
2022-09-18T11:29:25.417Z,11.00
2022-09-18T11:32:13.868Z,11.00
2022-09-18T11:35:13.248Z,11.00
2022-09-18T11:38:06.339Z,11.00
2022-09-18T11:40:57.052Z,11.10
2022-09-18T11:44:02.509Z,11.10
2022-09-18T11:47:11.094Z,11.10
2022-09-18T11:50:19.145Z,11.10
2022-09-18T11:53:31.757Z,11.10
2022-09-18T11:56:33.614Z,11.20
2022-09-18T11:59:39.515Z,11.20
2022-09-18T12:02:43.839Z,11.30
2022-09-18T12:05:37.091Z,11.20
2022-09-18T12:08:52.574Z,11.30
2022-09-18T12:11:55.660Z,11.40
2022-09-18T12:14:48.984Z,11.50
2022-09-18T12:17:42.262Z,11.60
2022-09-18T12:20:34.517Z,11.60
2022-09-18T12:23:25.686Z,11.60
2022-09-18T12:26:18.501Z,11.50
2022-09-18T12:29:08.917Z,11.50
2022-09-18T12:32:03.845Z,11.30
2022-09-18T12:35:14.023Z,11.20
2022-09-18T12:38:10.603Z,11.00
2022-09-18T12:41:08.624Z,10.80
2022-09-18T12:43:57.732Z,10.60
2022-09-18T12:47:02.073Z,10.50
2022-09-18T12:50:11.589Z,10.60
2022-09-18T12:53:19.628Z,10.70
2022-09-18T12:56:27.500Z,10.80
2022-09-18T12:59:41.249Z,10.90
2022-09-18T13:02:42.345Z,11.00
2022-09-18T13:05:45.266Z,11.00
2022-09-18T13:08:46.449Z,11.00
2022-09-18T13:11:44.522Z,11.10
2022-09-18T13:14:55.224Z,11.10
2022-09-18T13:17:59.994Z,11.00
2022-09-18T13:20:46.772Z,11.10
2022-09-18T13:23:37.707Z,11.00
2022-09-18T13:26:27.898Z,11.10
2022-09-18T13:29:45.036Z,11.10
2022-09-18T13:32:35.139Z,11.20
2022-09-18T13:35:33.297Z,11.20
2022-09-18T13:38:22.357Z,11.40
2022-09-18T13:41:10.722Z,11.50
2022-09-18T13:43:59.356Z,11.70
2022-09-18T13:46:46.688Z,12.00
2022-09-18T13:49:41.731Z,12.30
2022-09-18T13:52:34.030Z,12.50
2022-09-18T13:55:25.268Z,12.60
2022-09-18T13:58:36.939Z,12.90
2022-09-18T14:01:41.669Z,13.00
2022-09-18T14:04:39.964Z,13.10
2022-09-18T14:07:25.892Z,13.10
2022-09-18T14:10:22.820Z,13.00
2022-09-18T14:13:17.228Z,12.90
2022-09-18T14:16:06.537Z,12.90
2022-09-18T14:19:01.905Z,12.90
2022-09-18T14:21:48.170Z,12.70
2022-09-18T14:24:49.032Z,12.60
2022-09-18T14:27:42.795Z,12.50
2022-09-18T14:30:30.810Z,12.40
2022-09-18T14:33:21.063Z,12.40
2022-09-18T14:36:11.747Z,12.40
2022-09-18T14:39:00.111Z,12.40
2022-09-18T14:41:46.033Z,12.40
2022-09-18T14:44:33.890Z,12.40
2022-09-18T14:47:26.248Z,12.30
2022-09-18T14:50:31.134Z,12.30
2022-09-18T14:53:24.489Z,12.20
2022-09-18T14:56:15.632Z,12.20
2022-09-18T14:59:06.176Z,12.20
2022-09-18T15:01:52.669Z,12.10
2022-09-18T15:04:41.304Z,12.10
2022-09-18T15:07:27.665Z,12.10
2022-09-18T15:10:15.849Z,12.10
2022-09-18T15:13:07.000Z,12.10
2022-09-18T15:16:01.735Z,12.00
2022-09-18T15:18:49.765Z,12.00
2022-09-18T15:21:36.342Z,12.00
2022-09-18T15:24:22.592Z,12.00
2022-09-18T15:27:14.527Z,12.10
2022-09-18T15:30:05.475Z,12.00
2022-09-18T15:33:03.293Z,12.00
2022-09-18T15:35:52.789Z,12.00
2022-09-18T15:38:46.179Z,12.00
2022-09-18T15:41:44.818Z,11.90
2022-09-18T15:44:39.891Z,11.80
2022-09-18T15:47:25.907Z,11.80
2022-09-18T15:50:17.497Z,11.90
2022-09-18T15:53:25.365Z,11.90
2022-09-18T15:56:20.846Z,11.90
2022-09-18T15:59:16.917Z,11.90
2022-09-18T16:02:39.185Z,11.90
2022-09-18T16:05:27.666Z,11.80
2022-09-18T16:08:19.974Z,11.80
2022-09-18T16:11:26.741Z,11.80
2022-09-18T16:14:42.421Z,11.80
2022-09-18T16:17:28.692Z,11.80
2022-09-18T16:20:28.381Z,11.70
2022-09-18T16:23:22.076Z,11.60
2022-09-18T16:26:15.373Z,11.60
2022-09-18T16:29:02.730Z,11.60
2022-09-18T16:31:49.112Z,11.60
2022-09-18T16:34:35.439Z,11.60
2022-09-18T16:37:22.875Z,11.60
2022-09-18T16:40:18.567Z,11.60
2022-09-18T16:43:05.061Z,11.50
2022-09-18T16:45:51.614Z,11.50
2022-09-18T16:48:38.361Z,11.50
2022-09-18T16:51:24.403Z,11.40
2022-09-18T16:54:10.791Z,11.40
2022-09-18T16:57:04.525Z,11.40
2022-09-18T16:59:52.105Z,11.40
2022-09-18T17:02:38.424Z,11.40
2022-09-18T17:05:24.656Z,11.30
2022-09-18T17:08:10.807Z,11.30
2022-09-18T17:10:57.248Z,11.40
2022-09-18T17:13:43.593Z,11.30
2022-09-18T17:16:43.859Z,11.30
2022-09-18T17:19:30.860Z,11.30
2022-09-18T17:22:20.897Z,11.30
2022-09-18T17:25:08.788Z,11.30
2022-09-18T17:27:54.977Z,11.30
2022-09-18T17:30:44.675Z,11.30
2022-09-18T17:33:30.914Z,11.30
2022-09-18T17:36:18.143Z,11.30
2022-09-18T17:39:04.727Z,11.30
2022-09-18T17:41:50.745Z,11.30
2022-09-18T17:44:37.147Z,11.20
2022-09-18T17:47:23.981Z,11.20
2022-09-18T17:50:10.432Z,11.20
2022-09-18T17:52:56.772Z,11.20
2022-09-18T17:55:45.069Z,11.30
2022-09-18T17:58:31.710Z,11.30
2022-09-18T18:01:20.475Z,11.30
2022-09-18T18:04:07.618Z,11.40
2022-09-18T18:06:53.490Z,11.40
2022-09-18T18:09:41.004Z,11.40
2022-09-18T18:12:26.877Z,11.40
2022-09-18T18:15:12.849Z,11.50
2022-09-18T18:17:58.901Z,11.50
2022-09-18T18:20:52.084Z,11.40
2022-09-18T18:23:38.566Z,11.50
2022-09-18T18:26:25.029Z,11.50
2022-09-18T18:29:13.226Z,11.50
2022-09-18T18:32:00.360Z,11.50
2022-09-18T18:34:47.790Z,11.40
2022-09-18T18:37:33.845Z,11.40
2022-09-18T18:40:23.059Z,11.40
2022-09-18T18:43:14.175Z,11.30
2022-09-18T18:46:01.958Z,11.30
2022-09-18T18:48:49.332Z,11.20
2022-09-18T18:51:38.386Z,11.20
2022-09-18T18:54:24.423Z,11.10
2022-09-18T18:57:11.605Z,11.10
2022-09-18T18:59:58.203Z,11.10
2022-09-18T19:02:47.961Z,11.00
2022-09-18T19:05:36.084Z,11.00
2022-09-18T19:08:23.457Z,11.00
2022-09-18T19:11:09.726Z,11.00
2022-09-18T19:13:57.186Z,10.90
2022-09-18T19:16:44.681Z,10.80
2022-09-18T19:19:30.705Z,10.90
2022-09-18T19:22:18.449Z,10.80
2022-09-18T19:25:06.399Z,10.80
2022-09-18T19:27:56.672Z,10.80
2022-09-18T19:30:43.352Z,10.80
2022-09-18T19:33:31.223Z,10.80
2022-09-18T19:36:17.381Z,10.80
2022-09-18T19:39:04.696Z,10.80
2022-09-18T19:41:55.257Z,10.70
2022-09-18T19:44:49.737Z,10.70
2022-09-18T19:47:50.574Z,10.70
2022-09-18T19:50:39.333Z,10.60
2022-09-18T19:53:25.385Z,10.70
2022-09-18T19:56:27.609Z,10.60
2022-09-18T19:59:18.436Z,10.70
2022-09-18T20:02:04.538Z,10.60
2022-09-18T20:04:50.821Z,10.60
2022-09-18T20:07:40.832Z,10.60
2022-09-18T20:10:27.521Z,10.70
2022-09-18T20:13:13.617Z,10.60
2022-09-18T20:16:05.481Z,10.60
2022-09-18T20:18:51.336Z,10.60
2022-09-18T20:21:37.431Z,10.60
2022-09-18T20:24:23.470Z,10.60
2022-09-18T20:27:09.465Z,10.60
2022-09-18T20:29:55.336Z,10.60
2022-09-18T20:32:41.504Z,10.60
2022-09-18T20:35:27.704Z,10.60
2022-09-18T20:38:13.893Z,10.60
2022-09-18T20:41:06.754Z,10.60
2022-09-18T20:43:53.748Z,10.60
2022-09-18T20:46:40.534Z,10.60
2022-09-18T20:49:26.604Z,10.60
2022-09-18T20:52:14.545Z,10.60
2022-09-18T20:55:01.875Z,10.60
2022-09-18T20:57:50.002Z,10.60
2022-09-18T21:00:36.290Z,10.60
2022-09-18T21:03:22.548Z,10.60
2022-09-18T21:06:22.541Z,10.60
2022-09-18T21:09:09.529Z,10.70
2022-09-18T21:11:58.248Z,10.60
2022-09-18T21:14:44.444Z,10.70
2022-09-18T21:17:31.497Z,10.70
2022-09-18T21:20:18.016Z,10.70
2022-09-18T21:23:22.546Z,10.70
2022-09-18T21:26:17.332Z,10.60
2022-09-18T21:29:14.200Z,10.60
2022-09-18T21:32:00.681Z,10.60
2022-09-18T21:34:47.603Z,10.50
2022-09-18T21:37:33.535Z,10.50
2022-09-18T21:40:19.644Z,10.50
2022-09-18T21:43:05.453Z,10.50
2022-09-18T21:45:51.429Z,10.50
2022-09-18T21:48:39.617Z,10.50
2022-09-18T21:51:25.397Z,10.50
2022-09-18T21:54:17.600Z,10.40
2022-09-18T21:57:04.112Z,10.40
2022-09-18T21:59:50.170Z,10.30
2022-09-18T22:02:36.533Z,10.30
2022-09-18T22:05:22.677Z,10.20
2022-09-18T22:08:11.340Z,10.20
2022-09-18T22:11:04.408Z,10.10
2022-09-18T22:13:52.992Z,10.00
2022-09-18T22:16:39.629Z,10.00
2022-09-18T22:19:25.437Z,9.90
2022-09-18T22:22:11.736Z,9.90
2022-09-18T22:24:57.624Z,9.80
2022-09-18T22:27:44.273Z,9.70
2022-09-18T22:30:31.811Z,9.70
2022-09-18T22:33:17.886Z,9.60
2022-09-18T22:36:05.175Z,9.60
2022-09-18T22:38:52.163Z,9.60
2022-09-18T22:41:38.880Z,9.50
2022-09-18T22:44:25.466Z,9.50
2022-09-18T22:47:11.397Z,9.50
2022-09-18T22:49:57.333Z,9.50
2022-09-18T22:52:43.398Z,9.50
2022-09-18T22:55:32.077Z,9.40
2022-09-18T22:58:18.610Z,9.30
2022-09-18T23:01:18.406Z,9.30
2022-09-18T23:04:05.284Z,9.30
2022-09-18T23:06:51.945Z,9.20
2022-09-18T23:09:37.976Z,9.20
2022-09-18T23:12:23.796Z,9.10
2022-09-18T23:15:10.106Z,9.10
2022-09-18T23:17:56.092Z,9.10
2022-09-18T23:20:43.050Z,9.10
2022-09-18T23:23:31.636Z,9.10
2022-09-18T23:26:23.108Z,9.10
2022-09-18T23:29:12.731Z,9.20
2022-09-18T23:31:59.340Z,9.20
2022-09-18T23:34:45.561Z,9.20
2022-09-18T23:37:31.645Z,9.30
2022-09-18T23:40:17.674Z,9.30
2022-09-18T23:43:03.597Z,9.30
2022-09-18T23:45:49.613Z,9.30
2022-09-18T23:48:35.424Z,9.30
2022-09-18T23:51:27.049Z,9.30
2022-09-18T23:54:19.436Z,9.30
2022-09-18T23:57:05.355Z,9.30
2022-09-18T23:59:51.580Z,9.30
